Puerto Princesa, Philippines
Current Conditions -  °F | °C
As of 10:00 PM on Thursday 29 Jan 2015 (Local Time) from WBKT Reporting Station
Broken Clouds Broken Clouds  
Wind Chill: 81°   Ceiling: 28000
Heat Index: 87°   Visibility: 6mi
Dew Point: 77°   Wind: 6mph
Humidity: 89%   Direction: 60°ENE
Pressure: 29.88"   Gusts: NA
Location:  9.74°N, 118.74°E
Report Text: WBKT 291400Z 06005KT 010V120 9999 FEW015 BKN280 27/25 Q1012
Loading
Personal Weather Stations






























Interactive Weather Map New forecast layout! Learn more

10-Day Weather Forecast

Advertisements
Track Severe Weather on mobile